createdAt,value
2018-04-27T00:01:11.573Z,95593
2018-04-27T00:03:42.293Z,95605
2018-04-27T00:06:13.008Z,95598
2018-04-27T00:08:43.644Z,95604
2018-04-27T00:11:14.275Z,95600
2018-04-27T00:13:45.469Z,95600
2018-04-27T00:16:16.129Z,95601
2018-04-27T00:18:46.780Z,95593
2018-04-27T00:21:17.457Z,95588
2018-04-27T00:23:48.117Z,95592
2018-04-27T00:26:18.769Z,95584
2018-04-27T00:28:49.538Z,95585
2018-04-27T00:31:20.400Z,95585
2018-04-27T00:33:50.994Z,95584
2018-04-27T00:36:21.543Z,95588
2018-04-27T00:38:52.236Z,95591
2018-04-27T00:41:22.910Z,95589
2018-04-27T00:43:53.521Z,95588
2018-04-27T00:46:24.182Z,95588
2018-04-27T00:48:55.105Z,95590
2018-04-27T00:51:25.817Z,95583
2018-04-27T00:53:56.522Z,95585
2018-04-27T00:56:27.212Z,95583
2018-04-27T00:58:57.843Z,95587
2018-04-27T01:01:28.832Z,95590
2018-04-27T01:03:59.472Z,95587
2018-04-27T01:06:30.146Z,95586
2018-04-27T01:09:00.741Z,95585
2018-04-27T01:11:31.488Z,95585
2018-04-27T01:14:02.154Z,95588
2018-04-27T01:16:32.903Z,95583
2018-04-27T01:19:03.538Z,95584
2018-04-27T01:21:34.197Z,95586
2018-04-27T01:24:05.047Z,95583
2018-04-27T01:26:35.812Z,95586
2018-04-27T01:29:06.407Z,95588
2018-04-27T01:31:37.004Z,95595
2018-04-27T01:34:08.061Z,95588
2018-04-27T01:36:38.763Z,95589
2018-04-27T01:39:09.432Z,95593
2018-04-27T01:41:40.075Z,95590
2018-04-27T01:44:10.664Z,95593
2018-04-27T01:46:41.308Z,95591
2018-04-27T01:49:12.053Z,95586
2018-04-27T01:51:42.671Z,95586
2018-04-27T01:54:13.299Z,95585
2018-04-27T01:56:43.893Z,95585
2018-04-27T01:59:14.567Z,95585
2018-04-27T02:01:45.196Z,95581
2018-04-27T02:04:15.920Z,95579
2018-04-27T02:06:46.564Z,95579
2018-04-27T02:09:17.256Z,95579
2018-04-27T02:11:47.855Z,95586
2018-04-27T02:14:18.580Z,95579
2018-04-27T02:16:49.331Z,95580
2018-04-27T02:19:20.060Z,95579
2018-04-27T02:21:50.719Z,95583
2018-04-27T02:24:22.623Z,95578
2018-04-27T02:26:57.248Z,95578
2018-04-27T02:29:28.212Z,95572
2018-04-27T02:31:59.276Z,95577
2018-04-27T02:34:29.915Z,95575
2018-04-27T02:37:00.772Z,95575
2018-04-27T02:39:31.478Z,95570
2018-04-27T02:42:02.124Z,95576
2018-04-27T02:44:32.794Z,95571
2018-04-27T02:47:03.468Z,95571
2018-04-27T02:49:34.485Z,95573
2018-04-27T02:52:05.223Z,95569
2018-04-27T02:54:35.791Z,95573
2018-04-27T02:57:06.528Z,95573
2018-04-27T02:59:37.153Z,95566
2018-04-27T03:02:08.284Z,95567
2018-04-27T03:04:39.120Z,95559
2018-04-27T03:07:09.979Z,95558
2018-04-27T03:09:40.687Z,95553
2018-04-27T03:12:11.678Z,95548
2018-04-27T03:14:42.365Z,95550
2018-04-27T03:17:12.976Z,95551
2018-04-27T03:19:43.552Z,95550
2018-04-27T03:22:14.547Z,95553
2018-04-27T03:24:45.305Z,95554
2018-04-27T03:27:15.973Z,95544
2018-04-27T03:29:47.008Z,95549
2018-04-27T03:32:18.068Z,95545
2018-04-27T03:34:48.748Z,95546
2018-04-27T03:37:19.517Z,95549
2018-04-27T03:39:50.163Z,95553
2018-04-27T03:42:20.833Z,95543
2018-04-27T03:44:51.359Z,95544
2018-04-27T03:47:22.023Z,95548
2018-04-27T03:49:52.663Z,95547
2018-04-27T03:52:23.601Z,95543
2018-04-27T03:54:54.237Z,95536
2018-04-27T03:57:24.952Z,95529
2018-04-27T04:02:03.581Z,95530
2018-04-27T04:05:37.297Z,95531
2018-04-27T04:08:08.000Z,95526
2018-04-27T04:10:39.204Z,95523
2018-04-27T04:13:09.880Z,95528
2018-04-27T04:15:40.623Z,95524
2018-04-27T04:18:11.287Z,95525
2018-04-27T04:20:41.932Z,95527
2018-04-27T04:23:12.671Z,95529
2018-04-27T04:25:43.252Z,95523
2018-04-27T04:28:13.791Z,95524
2018-04-27T04:30:44.529Z,95527
2018-04-27T04:33:15.144Z,95529
2018-04-27T04:35:46.105Z,95526
2018-04-27T04:38:16.709Z,95524
2018-04-27T04:40:47.812Z,95524
2018-04-27T04:43:18.388Z,95530
2018-04-27T04:45:49.094Z,95535
2018-04-27T04:48:19.679Z,95532
2018-04-27T04:50:50.365Z,95531
2018-04-27T04:53:20.983Z,95529
2018-04-27T04:56:01.159Z,95526
2018-04-27T04:58:52.943Z,95529
2018-04-27T05:01:24.362Z,95524
2018-04-27T05:03:55.846Z,95526
2018-04-27T05:06:27.285Z,95522
2018-04-27T05:08:58.476Z,95515
2018-04-27T05:11:31.108Z,95515
2018-04-27T05:14:02.458Z,95515
2018-04-27T05:16:34.081Z,95514
2018-04-27T05:19:06.544Z,95514
2018-04-27T05:21:38.092Z,95514
2018-04-27T05:24:09.448Z,95513
2018-04-27T05:26:40.548Z,95517
2018-04-27T05:29:11.617Z,95514
2018-04-27T05:31:42.985Z,95512
2018-04-27T05:34:14.069Z,95511
2018-04-27T05:36:45.433Z,95506
2018-04-27T05:39:16.494Z,95507
2018-04-27T05:41:47.917Z,95508
2018-04-27T05:44:19.183Z,95504
2018-04-27T05:46:51.062Z,95511
2018-04-27T05:49:23.175Z,95507
2018-04-27T05:51:54.649Z,95504
2018-04-27T05:54:25.710Z,95500
2018-04-27T05:56:56.820Z,95500
2018-04-27T05:59:28.292Z,95494
2018-04-27T06:01:59.323Z,95497
2018-04-27T06:04:30.536Z,95497
2018-04-27T06:07:01.875Z,95489
2018-04-27T06:09:33.902Z,95487
2018-04-27T06:12:05.183Z,95488
2018-04-27T06:14:36.116Z,95482
2018-04-27T06:17:07.380Z,95491
2018-04-27T06:19:38.495Z,95489
2018-04-27T06:22:09.872Z,95486
2018-04-27T06:24:40.906Z,95485
2018-04-27T06:27:12.129Z,95484
2018-04-27T06:29:43.104Z,95482
2018-04-27T06:32:14.145Z,95484
2018-04-27T06:34:45.229Z,95482
2018-04-27T06:37:16.316Z,95482
2018-04-27T06:39:48.150Z,95480
2018-04-27T06:42:19.952Z,95475
2018-04-27T06:44:51.646Z,95477
2018-04-27T06:47:23.208Z,95475
2018-04-27T06:49:54.312Z,95474
2018-04-27T06:52:25.346Z,95471
2018-04-27T06:54:56.339Z,95475
2018-04-27T06:57:27.488Z,95471
2018-04-27T06:59:58.866Z,95470
2018-04-27T07:02:30.204Z,95465
2018-04-27T07:05:02.151Z,95465
2018-04-27T07:07:33.508Z,95465
2018-04-27T07:10:05.286Z,95461
2018-04-27T07:12:36.980Z,95453
2018-04-27T07:15:09.687Z,95454
2018-04-27T07:17:41.149Z,95449
2018-04-27T07:20:12.502Z,95451
2018-04-27T07:22:46.490Z,95449
2018-04-27T07:25:17.983Z,95444
2018-04-27T07:27:49.222Z,95436
2018-04-27T07:30:20.783Z,95438
2018-04-27T07:32:52.322Z,95442
2018-04-27T07:35:23.713Z,95444
2018-04-27T07:37:55.326Z,95438
2018-04-27T07:40:26.588Z,95428
2018-04-27T07:42:58.626Z,95426
2018-04-27T07:45:30.541Z,95419
2018-04-27T07:48:02.737Z,95416
2018-04-27T07:50:34.914Z,95414
2018-04-27T07:53:06.171Z,95414
2018-04-27T07:55:38.148Z,95409
2018-04-27T07:58:14.100Z,95407
2018-04-27T08:00:46.621Z,95414
2018-04-27T08:03:19.155Z,95412
2018-04-27T08:05:51.789Z,95414
2018-04-27T08:08:28.491Z,95414
2018-04-27T08:11:02.224Z,95414
2018-04-27T08:13:33.865Z,95410
2018-04-27T08:16:05.163Z,95406
2018-04-27T08:18:36.513Z,95404
2018-04-27T08:21:08.367Z,95400
2018-04-27T08:23:40.026Z,95405
2018-04-27T08:26:11.362Z,95396
2018-04-27T08:28:42.385Z,95406
2018-04-27T08:31:13.659Z,95392
2018-04-27T08:33:45.155Z,95388
2018-04-27T08:36:16.862Z,95399
2018-04-27T08:38:48.163Z,95389
2018-04-27T08:41:19.256Z,95381
2018-04-27T08:43:50.474Z,95387
2018-04-27T08:46:22.607Z,95385
2018-04-27T08:48:53.987Z,95368
2018-04-27T08:51:25.383Z,95360
2018-04-27T08:53:56.452Z,95347
2018-04-27T08:56:27.559Z,95354
2018-04-27T08:59:02.394Z,95357
2018-04-27T09:01:33.786Z,95358
2018-04-27T09:04:04.992Z,95350
2018-04-27T09:06:36.364Z,95346
2018-04-27T09:09:08.821Z,95350
2018-04-27T09:11:40.346Z,95352
2018-04-27T09:14:11.492Z,95343
2018-04-27T09:16:42.513Z,95335
2018-04-27T09:19:13.568Z,95334
2018-04-27T09:21:44.668Z,95337
2018-04-27T09:24:15.728Z,95333
2018-04-27T09:26:47.060Z,95332
2018-04-27T09:29:19.281Z,95331
2018-04-27T09:31:50.447Z,95327
2018-04-27T09:34:22.736Z,95323
2018-04-27T09:39:39.246Z,95313
2018-04-27T09:42:10.617Z,95304
2018-04-27T09:44:44.650Z,95314
2018-04-27T09:47:17.752Z,95306
2018-04-27T09:49:58.935Z,95298
2018-04-27T09:52:29.911Z,95291
2018-04-27T09:55:01.180Z,95293
2018-04-27T09:57:31.970Z,95284
2018-04-27T10:00:03.104Z,95283
2018-04-27T10:02:34.133Z,95276
2018-04-27T10:05:04.931Z,95274
2018-04-27T10:07:35.687Z,95267
2018-04-27T10:10:07.016Z,95260
2018-04-27T10:12:37.928Z,95256
2018-04-27T10:15:09.212Z,95258
2018-04-27T10:17:39.816Z,95253
2018-04-27T10:20:11.831Z,95244
2018-04-27T10:22:42.360Z,95243
2018-04-27T10:25:13.057Z,95243
2018-04-27T10:27:43.703Z,95234
2018-04-27T10:30:14.862Z,95219
2018-04-27T10:32:45.589Z,95219
2018-04-27T10:35:17.844Z,95220
2018-04-27T10:37:50.344Z,95214
2018-04-27T10:40:22.188Z,95210
2018-04-27T10:42:52.874Z,95204
2018-04-27T10:45:24.940Z,95206
2018-04-27T10:47:56.304Z,95193
2018-04-27T10:50:27.592Z,95185
2018-04-27T10:52:59.079Z,95186
2018-04-27T10:55:30.060Z,95185
2018-04-27T10:58:02.036Z,95178
2018-04-27T11:00:34.007Z,95174
2018-04-27T11:03:05.198Z,95163
2018-04-27T11:05:36.308Z,95166
2018-04-27T11:08:07.217Z,95158
2018-04-27T11:10:38.301Z,95149
2018-04-27T11:13:09.500Z,95142
2018-04-27T11:15:40.438Z,95150
2018-04-27T11:18:11.291Z,95146
2018-04-27T11:20:42.170Z,95138
2018-04-27T11:23:13.072Z,95139
2018-04-27T11:25:44.212Z,95133
2018-04-27T11:28:15.135Z,95128
2018-04-27T11:30:47.221Z,95129
2018-04-27T11:33:19.153Z,95129
2018-04-27T11:35:50.164Z,95125
2018-04-27T11:38:21.218Z,95122
2018-04-27T11:40:52.314Z,95125
2018-04-27T11:43:23.356Z,95120
2018-04-27T11:45:57.087Z,95113
2018-04-27T11:48:29.065Z,95100
2018-04-27T11:50:59.982Z,95103
2018-04-27T11:53:30.862Z,95101
2018-04-27T12:05:14.307Z,95080
2018-04-27T12:07:45.499Z,95075
2018-04-27T12:10:16.235Z,95075
2018-04-27T12:12:46.727Z,95074
2018-04-27T12:15:17.549Z,95070
2018-04-27T12:17:48.529Z,95072
2018-04-27T12:20:19.838Z,95070
2018-04-27T12:22:50.431Z,95066
2018-04-27T12:25:21.053Z,95062
2018-04-27T12:27:51.819Z,95049
2018-04-27T12:30:23.225Z,95060
2018-04-27T12:32:53.871Z,95055
2018-04-27T12:35:24.471Z,95051
2018-04-27T12:37:55.200Z,95051
2018-04-27T12:40:26.297Z,95041
2018-04-27T12:42:57.227Z,95038
2018-04-27T12:45:27.856Z,95041
2018-04-27T12:48:03.731Z,95023
2018-04-27T12:50:36.521Z,95025
2018-04-27T12:53:07.805Z,95023
2018-04-27T12:55:47.950Z,95015
2018-04-27T12:58:20.685Z,95016
2018-04-27T13:00:51.508Z,95020
2018-04-27T13:03:22.284Z,95014
2018-04-27T13:05:53.236Z,95018
2018-04-27T13:08:24.544Z,95008
2018-04-27T13:10:55.245Z,95001
2018-04-27T13:13:26.047Z,94994
2018-04-27T13:15:56.747Z,94993
2018-04-27T13:18:28.433Z,94999
2018-04-27T13:20:59.056Z,94996
2018-04-27T13:23:29.765Z,94991
2018-04-27T13:26:01.415Z,94985
2018-04-27T13:28:32.997Z,94974
2018-04-27T13:31:03.480Z,94972
2018-04-27T13:33:34.215Z,94970
2018-04-27T13:36:04.756Z,94975
2018-04-27T13:38:35.880Z,94973
2018-04-27T13:41:07.167Z,94963
2018-04-27T13:43:38.589Z,94948
2018-04-27T13:46:12.941Z,94945
2018-04-27T13:48:44.471Z,94949
2018-04-27T13:51:15.134Z,94941
2018-04-27T13:53:46.662Z,94940
2018-04-27T13:56:17.288Z,94948
2018-04-27T13:58:47.931Z,94947
2018-04-27T14:01:18.731Z,94944
2018-04-27T14:03:49.344Z,94929
2018-04-27T14:06:19.908Z,94931
2018-04-27T14:08:50.763Z,94923
2018-04-27T14:11:21.265Z,94915
2018-04-27T14:13:51.920Z,94909
2018-04-27T14:16:22.734Z,94918
2018-04-27T14:18:53.582Z,94914
2018-04-27T14:21:24.077Z,94904
2018-04-27T14:23:55.340Z,94908
2018-04-27T14:26:26.056Z,94903
2018-04-27T14:28:56.998Z,94895
2018-04-27T14:31:27.597Z,94895
2018-04-27T14:33:58.303Z,94902
2018-04-27T14:36:28.832Z,94897
2018-04-27T14:38:59.665Z,94897
2018-04-27T14:41:30.808Z,94892
2018-04-27T14:44:01.503Z,94893
2018-04-27T14:46:32.187Z,94881
2018-04-27T14:49:02.902Z,94890
2018-04-27T14:51:33.961Z,94886
2018-04-27T14:54:04.869Z,94892
2018-04-27T14:56:35.562Z,94875
2018-04-27T14:59:06.747Z,94873
2018-04-27T15:01:37.275Z,94873
2018-04-27T15:04:07.937Z,94874
2018-04-27T15:06:38.615Z,94875
2018-04-27T15:09:09.448Z,94872
2018-04-27T15:11:40.030Z,94864
2018-04-27T15:14:10.867Z,94858
2018-04-27T15:16:41.442Z,94856
2018-04-27T15:19:12.420Z,94854
2018-04-27T15:21:43.084Z,94848
2018-04-27T15:24:13.783Z,94850
2018-04-27T15:26:44.449Z,94841
2018-04-27T15:29:15.091Z,94842
2018-04-27T15:31:45.914Z,94841
2018-04-27T15:34:16.876Z,94840
2018-04-27T15:36:47.775Z,94862
2018-04-27T15:39:18.943Z,94847
2018-04-27T15:41:49.641Z,94851
2018-04-27T15:44:21.151Z,94850
2018-04-27T15:46:51.915Z,94844
2018-04-27T15:49:23.631Z,94840
2018-04-27T15:51:54.456Z,94838
2018-04-27T15:54:25.576Z,94828
2018-04-27T15:56:56.578Z,94829
2018-04-27T15:59:27.423Z,94822
2018-04-27T16:01:58.248Z,94815
2018-04-27T16:04:29.518Z,94811
2018-04-27T16:07:01.519Z,94819
2018-04-27T16:09:32.360Z,94818
2018-04-27T16:12:04.161Z,94823
2018-04-27T16:14:35.469Z,94817
2018-04-27T16:17:07.285Z,94817
2018-04-27T16:19:38.074Z,94817
2018-04-27T16:22:08.790Z,94811
2018-04-27T16:24:39.885Z,94798
2018-04-27T16:27:10.724Z,94803
2018-04-27T16:29:41.876Z,94805
2018-04-27T16:32:12.492Z,94800
2018-04-27T16:34:43.417Z,94802
2018-04-27T16:37:14.080Z,94795
2018-04-27T16:39:45.271Z,94792
2018-04-27T16:42:15.843Z,94794
2018-04-27T16:44:46.708Z,94804
2018-04-27T16:47:17.762Z,94798
2018-04-27T16:49:48.451Z,94808
2018-04-27T16:52:19.107Z,94803
2018-04-27T16:54:50.079Z,94803
2018-04-27T16:57:20.540Z,94796
2018-04-27T16:59:51.451Z,94793
2018-04-27T17:02:22.046Z,94791
2018-04-27T17:04:53.110Z,94791
2018-04-27T17:07:23.789Z,94785
2018-04-27T17:09:54.591Z,94782
2018-04-27T17:12:25.262Z,94776
2018-04-27T17:14:56.279Z,94782
2018-04-27T17:17:26.892Z,94781
2018-04-27T17:19:57.667Z,94777
2018-04-27T17:22:28.294Z,94779
2018-04-27T17:24:59.208Z,94777
2018-04-27T17:27:29.853Z,94781
2018-04-27T17:30:01.263Z,94783
2018-04-27T17:32:32.074Z,94789
2018-04-27T17:35:04.038Z,94791
2018-04-27T17:37:34.692Z,94789
2018-04-27T17:40:05.796Z,94793
2018-04-27T17:42:39.273Z,94789
2018-04-27T17:45:10.379Z,94794
2018-04-27T17:47:41.036Z,94798
2018-04-27T17:50:11.676Z,94791
2018-04-27T17:52:42.165Z,94795
2018-04-27T17:55:12.859Z,94795
2018-04-27T17:57:43.498Z,94797
2018-04-27T18:00:14.683Z,94799
2018-04-27T18:02:45.507Z,94796
2018-04-27T18:05:17.189Z,94799
2018-04-27T18:07:47.869Z,94802
2018-04-27T18:10:19.433Z,94803
2018-04-27T18:12:50.184Z,94799
2018-04-27T18:15:21.106Z,94797
2018-04-27T18:17:51.882Z,94795
2018-04-27T18:20:22.778Z,94796
2018-04-27T18:22:53.598Z,94800
2018-04-27T18:25:27.344Z,94809
2018-04-27T18:27:58.309Z,94803
2018-04-27T18:33:52.476Z,94800
2018-04-27T18:36:23.294Z,94799
2018-04-27T18:38:54.338Z,94798
2018-04-27T18:41:25.051Z,94798
2018-04-27T18:43:55.837Z,94809
2018-04-27T18:46:27.024Z,94809
2018-04-27T18:48:57.913Z,94802
2018-04-27T18:51:29.357Z,94805
2018-04-27T18:54:00.600Z,94810
2018-04-27T18:56:31.304Z,94812
2018-04-27T18:59:02.232Z,94820
2018-04-27T19:01:33.055Z,94823
2018-04-27T19:04:04.272Z,94831
2018-04-27T19:06:34.898Z,94838
2018-04-27T19:09:06.576Z,94831
2018-04-27T19:11:37.258Z,94828
2018-04-27T19:14:08.136Z,94829
2018-04-27T19:16:38.932Z,94834
2018-04-27T19:19:10.144Z,94836
2018-04-27T19:21:41.215Z,94833
2018-04-27T19:24:11.937Z,94829
2018-04-27T19:26:42.904Z,94832
2018-04-27T19:29:13.619Z,94830
2018-04-27T19:31:44.218Z,94833
2018-04-27T19:34:15.238Z,94836
2018-04-27T19:36:46.057Z,94839
2018-04-27T19:39:16.704Z,94839
2018-04-27T19:41:47.504Z,94840
2018-04-27T19:44:18.728Z,94838
2018-04-27T19:46:49.236Z,94831
2018-04-27T19:49:20.226Z,94840
2018-04-27T19:51:50.899Z,94844
2018-04-27T19:54:21.616Z,94828
2018-04-27T19:56:52.765Z,94831
2018-04-27T19:59:23.502Z,94836
2018-04-27T20:01:54.146Z,94837
2018-04-27T20:04:25.739Z,94845
2018-04-27T20:06:56.335Z,94843
2018-04-27T20:09:27.803Z,94842
2018-04-27T20:11:58.601Z,94840
2018-04-27T20:14:30.728Z,94837
2018-04-27T20:17:01.570Z,94839
2018-04-27T20:19:32.455Z,94841
2018-04-27T20:22:08.662Z,94842
2018-04-27T20:24:39.368Z,94839
2018-04-27T20:27:10.260Z,94837
2018-04-27T20:29:42.430Z,94838
2018-04-27T20:32:13.188Z,94835
2018-04-27T20:34:44.391Z,94839
2018-04-27T20:37:15.108Z,94834
2018-04-27T20:39:46.606Z,94838
2018-04-27T20:42:17.350Z,94840
2018-04-27T20:44:48.017Z,94838
2018-04-27T20:47:19.910Z,94835
2018-04-27T20:49:51.423Z,94834
2018-04-27T20:52:27.539Z,94832
2018-04-27T20:54:58.204Z,94830
2018-04-27T20:57:28.973Z,94829
2018-04-27T20:59:59.917Z,94836
2018-04-27T21:02:31.013Z,94835
2018-04-27T21:05:01.845Z,94842
2018-04-27T21:07:32.670Z,94834
2018-04-27T21:10:03.382Z,94842
2018-04-27T21:12:34.591Z,94841
2018-04-27T21:15:05.807Z,94839
2018-04-27T21:17:37.088Z,94841
2018-04-27T21:20:07.808Z,94839
2018-04-27T21:22:39.356Z,94838
2018-04-27T21:25:10.999Z,94843
2018-04-27T21:27:42.027Z,94835
2018-04-27T21:30:12.904Z,94830
2018-04-27T21:32:43.605Z,94828
2018-04-27T21:35:14.702Z,94834
2018-04-27T21:37:46.176Z,94837
2018-04-27T21:40:16.976Z,94834
2018-04-27T21:42:47.638Z,94835
2018-04-27T21:45:18.413Z,94842
2018-04-27T21:47:49.035Z,94843
2018-04-27T21:50:20.227Z,94842
2018-04-27T21:52:51.047Z,94833
2018-04-27T21:55:21.789Z,94844
2018-04-27T21:57:52.747Z,94844
2018-04-27T22:00:23.732Z,94848
2018-04-27T22:02:54.757Z,94841
2018-04-27T22:05:28.130Z,94847
2018-04-27T22:07:58.907Z,94842
2018-04-27T22:10:29.752Z,94841
2018-04-27T22:13:00.405Z,94848
2018-04-27T22:15:31.451Z,94839
2018-04-27T22:18:02.241Z,94842
2018-04-27T22:20:33.076Z,94841
2018-04-27T22:23:04.181Z,94836
2018-04-27T22:25:36.074Z,94848
2018-04-27T22:28:06.803Z,94842
2018-04-27T22:30:37.886Z,94843
2018-04-27T22:33:08.676Z,94848
2018-04-27T22:35:39.471Z,94848
2018-04-27T22:38:13.420Z,94850
2018-04-27T22:40:44.682Z,94851
2018-04-27T22:43:15.787Z,94847
2018-04-27T22:45:46.902Z,94850
2018-04-27T22:48:24.270Z,94851
2018-04-27T22:50:55.878Z,94844
2018-04-27T22:53:26.688Z,94843
2018-04-27T22:55:57.330Z,94841
2018-04-27T22:58:29.102Z,94838
2018-04-27T23:00:59.943Z,94842
2018-04-27T23:03:31.092Z,94836
2018-04-27T23:06:01.902Z,94845
2018-04-27T23:08:32.997Z,94838
2018-04-27T23:11:03.861Z,94849
2018-04-27T23:13:34.535Z,94845
2018-04-27T23:16:06.769Z,94852
2018-04-27T23:18:37.869Z,94858
2018-04-27T23:21:08.778Z,94846
2018-04-27T23:23:40.150Z,94852
2018-04-27T23:26:12.681Z,94854
2018-04-27T23:28:43.524Z,94854
2018-04-27T23:31:14.341Z,94858
2018-04-27T23:33:44.932Z,94866
2018-04-27T23:36:15.768Z,94861
2018-04-27T23:38:46.479Z,94866
2018-04-27T23:41:17.341Z,94862
2018-04-27T23:43:48.033Z,94866
2018-04-27T23:46:21.960Z,94868
2018-04-27T23:48:52.573Z,94861
2018-04-27T23:51:23.239Z,94876
2018-04-27T23:53:54.031Z,94871
2018-04-27T23:56:30.525Z,94872
2018-04-27T23:59:01.299Z,94878
